sensor_id;sensor_type;location;lat;lon;timestamp;pressure;altitude;pressure_sealevel;temperature;humidity
51289;BME280;37372;52.294;5.152;2022-08-06T00:00:51;102685.28;;;14.07;81.17
51289;BME280;37372;52.294;5.152;2022-08-06T00:03:16;102687.25;;;14.03;81.48
51289;BME280;37372;52.294;5.152;2022-08-06T00:05:41;102693.22;;;13.94;81.67
51289;BME280;37372;52.294;5.152;2022-08-06T00:08:07;102690.81;;;13.93;82.26
51289;BME280;37372;52.294;5.152;2022-08-06T00:10:32;102697.22;;;13.86;82.24
51289;BME280;37372;52.294;5.152;2022-08-06T00:12:58;102699.66;;;13.87;82.31
51289;BME280;37372;52.294;5.152;2022-08-06T00:15:24;102700.34;;;13.70;84.35
51289;BME280;37372;52.294;5.152;2022-08-06T00:17:49;102697.00;;;13.54;84.64
51289;BME280;37372;52.294;5.152;2022-08-06T00:20:15;102696.59;;;13.55;84.34
51289;BME280;37372;52.294;5.152;2022-08-06T00:22:41;102697.38;;;13.49;84.10
51289;BME280;37372;52.294;5.152;2022-08-06T00:25:07;102704.25;;;13.55;84.32
51289;BME280;37372;52.294;5.152;2022-08-06T00:27:33;102701.88;;;13.57;83.34
51289;BME280;37372;52.294;5.152;2022-08-06T00:29:58;102702.69;;;13.61;83.75
51289;BME280;37372;52.294;5.152;2022-08-06T00:32:24;102705.94;;;13.63;83.55
51289;BME280;37372;52.294;5.152;2022-08-06T00:34:49;102708.31;;;13.61;83.57
51289;BME280;37372;52.294;5.152;2022-08-06T00:37:14;102708.31;;;13.57;84.02
51289;BME280;37372;52.294;5.152;2022-08-06T00:39:40;102712.34;;;13.56;84.73
51289;BME280;37372;52.294;5.152;2022-08-06T00:42:05;102711.41;;;13.41;85.51
51289;BME280;37372;52.294;5.152;2022-08-06T00:44:31;102721.88;;;13.41;85.35
51289;BME280;37372;52.294;5.152;2022-08-06T00:46:57;102718.63;;;13.39;85.68
51289;BME280;37372;52.294;5.152;2022-08-06T00:49:22;102721.81;;;13.37;85.72
51289;BME280;37372;52.294;5.152;2022-08-06T00:51:47;102725.09;;;13.43;85.93
51289;BME280;37372;52.294;5.152;2022-08-06T00:54:13;102725.06;;;13.36;86.56
51289;BME280;37372;52.294;5.152;2022-08-06T00:56:38;102732.13;;;13.22;86.46
51289;BME280;37372;52.294;5.152;2022-08-06T00:59:04;102736.94;;;13.18;86.53
51289;BME280;37372;52.294;5.152;2022-08-06T01:01:30;102738.09;;;13.14;87.73
51289;BME280;37372;52.294;5.152;2022-08-06T01:03:56;102739.31;;;13.13;87.65
51289;BME280;37372;52.294;5.152;2022-08-06T01:06:21;102750.34;;;13.29;86.70
51289;BME280;37372;52.294;5.152;2022-08-06T01:08:47;102741.13;;;13.35;86.18
51289;BME280;37372;52.294;5.152;2022-08-06T01:11:12;102749.19;;;13.33;85.07
51289;BME280;37372;52.294;5.152;2022-08-06T01:13:37;102751.16;;;13.29;86.73
51289;BME280;37372;52.294;5.152;2022-08-06T01:16:10;102755.00;;;13.14;87.24
51289;BME280;37372;52.294;5.152;2022-08-06T01:18:45;102750.50;;;13.06;87.61
51289;BME280;37372;52.294;5.152;2022-08-06T01:21:34;102751.31;;;13.10;87.84
51289;BME280;37372;52.294;5.152;2022-08-06T01:29:50;102751.53;;;12.90;88.27
51289;BME280;37372;52.294;5.152;2022-08-06T01:32:29;102751.88;;;12.85;88.35
51289;BME280;37372;52.294;5.152;2022-08-06T01:35:00;102757.50;;;12.85;88.53
51289;BME280;37372;52.294;5.152;2022-08-06T01:37:52;102762.66;;;12.79;88.62
51289;BME280;37372;52.294;5.152;2022-08-06T01:40:24;102769.53;;;12.82;89.03
51289;BME280;37372;52.294;5.152;2022-08-06T01:42:52;102765.53;;;12.83;89.81
51289;BME280;37372;52.294;5.152;2022-08-06T01:45:19;102766.38;;;12.87;90.15
51289;BME280;37372;52.294;5.152;2022-08-06T01:47:47;102759.44;;;12.77;90.52
51289;BME280;37372;52.294;5.152;2022-08-06T01:50:18;102762.28;;;12.81;89.58
51289;BME280;37372;52.294;5.152;2022-08-06T01:52:46;102756.22;;;12.79;89.79
51289;BME280;37372;52.294;5.152;2022-08-06T01:55:14;102759.47;;;12.81;89.16
51289;BME280;37372;52.294;5.152;2022-08-06T01:57:44;102764.63;;;12.75;89.90
51289;BME280;37372;52.294;5.152;2022-08-06T02:00:11;102764.66;;;12.79;89.74
51289;BME280;37372;52.294;5.152;2022-08-06T02:02:37;102759.84;;;12.79;89.97
51289;BME280;37372;52.294;5.152;2022-08-06T02:05:05;102758.59;;;12.77;89.94
51289;BME280;37372;52.294;5.152;2022-08-06T02:07:34;102769.47;;;12.75;90.02
51289;BME280;37372;52.294;5.152;2022-08-06T02:10:03;102765.78;;;12.71;89.92
51289;BME280;37372;52.294;5.152;2022-08-06T02:12:31;102760.59;;;12.73;89.36
51289;BME280;37372;52.294;5.152;2022-08-06T02:15:03;102771.09;;;12.79;88.80
51289;BME280;37372;52.294;5.152;2022-08-06T02:17:35;102767.47;;;12.79;89.56
51289;BME280;37372;52.294;5.152;2022-08-06T02:20:03;102769.88;;;12.77;90.33
51289;BME280;37372;52.294;5.152;2022-08-06T02:22:32;102772.69;;;12.77;90.20
51289;BME280;37372;52.294;5.152;2022-08-06T02:25:02;102772.31;;;12.78;90.45
51289;BME280;37372;52.294;5.152;2022-08-06T02:27:29;102771.84;;;12.73;91.27
51289;BME280;37372;52.294;5.152;2022-08-06T02:29:58;102773.28;;;12.59;90.77
51289;BME280;37372;52.294;5.152;2022-08-06T02:32:24;102773.66;;;12.58;90.76
51289;BME280;37372;52.294;5.152;2022-08-06T02:34:49;102767.56;;;12.52;90.85
51289;BME280;37372;52.294;5.152;2022-08-06T02:37:26;102769.16;;;12.50;91.47
51289;BME280;37372;52.294;5.152;2022-08-06T02:39:56;102772.06;;;12.57;91.36
51289;BME280;37372;52.294;5.152;2022-08-06T02:50:05;102770.03;;;12.57;92.40
51289;BME280;37372;52.294;5.152;2022-08-06T02:52:40;102779.66;;;12.56;93.06
51289;BME280;37372;52.294;5.152;2022-08-06T02:55:19;102773.34;;;12.63;92.22
51289;BME280;37372;52.294;5.152;2022-08-06T02:57:51;102777.00;;;12.67;91.74
51289;BME280;37372;52.294;5.152;2022-08-06T03:00:18;102783.94;;;12.77;91.27
51289;BME280;37372;52.294;5.152;2022-08-06T03:02:44;102780.38;;;12.80;90.49
51289;BME280;37372;52.294;5.152;2022-08-06T03:05:15;102780.03;;;12.85;91.11
51289;BME280;37372;52.294;5.152;2022-08-06T03:07:44;102784.13;;;12.91;91.01
51289;BME280;37372;52.294;5.152;2022-08-06T03:10:11;102784.56;;;12.93;90.56
51289;BME280;37372;52.294;5.152;2022-08-06T03:12:38;102776.88;;;12.90;90.57
51289;BME280;37372;52.294;5.152;2022-08-06T03:15:05;102784.94;;;12.92;90.64
51289;BME280;37372;52.294;5.152;2022-08-06T03:17:32;102790.44;;;12.81;90.95
51289;BME280;37372;52.294;5.152;2022-08-06T03:20:00;102781.34;;;12.95;90.64
51289;BME280;37372;52.294;5.152;2022-08-06T03:22:27;102790.88;;;12.83;90.53
51289;BME280;37372;52.294;5.152;2022-08-06T03:24:54;102788.69;;;12.69;91.50
51289;BME280;37372;52.294;5.152;2022-08-06T03:27:20;102791.03;;;12.64;91.62
51289;BME280;37372;52.294;5.152;2022-08-06T03:29:47;102788.06;;;12.53;92.40
51289;BME280;37372;52.294;5.152;2022-08-06T03:32:13;102792.81;;;12.45;92.70
51289;BME280;37372;52.294;5.152;2022-08-06T03:34:39;102795.63;;;12.45;92.85
51289;BME280;37372;52.294;5.152;2022-08-06T03:37:07;102798.78;;;12.44;92.49
51289;BME280;37372;52.294;5.152;2022-08-06T03:39:33;102790.75;;;12.42;93.25
51289;BME280;37372;52.294;5.152;2022-08-06T03:41:59;102798.00;;;12.43;93.01
51289;BME280;37372;52.294;5.152;2022-08-06T03:44:25;102795.97;;;12.44;92.80
51289;BME280;37372;52.294;5.152;2022-08-06T03:46:58;102797.81;;;12.29;91.80
51289;BME280;37372;52.294;5.152;2022-08-06T03:49:35;102796.81;;;12.18;92.12
51289;BME280;37372;52.294;5.152;2022-08-06T03:52:02;102801.56;;;12.13;92.60
51289;BME280;37372;52.294;5.152;2022-08-06T03:54:34;102797.09;;;12.09;93.17
51289;BME280;37372;52.294;5.152;2022-08-06T03:57:08;102809.38;;;11.97;93.04
51289;BME280;37372;52.294;5.152;2022-08-06T03:59:34;102805.69;;;11.93;93.39
51289;BME280;37372;52.294;5.152;2022-08-06T04:02:02;102803.75;;;11.97;93.21
51289;BME280;37372;52.294;5.152;2022-08-06T04:04:30;102807.13;;;12.06;92.59
51289;BME280;37372;52.294;5.152;2022-08-06T04:06:58;102815.31;;;12.19;91.25
51289;BME280;37372;52.294;5.152;2022-08-06T04:09:25;102815.03;;;12.24;91.87
51289;BME280;37372;52.294;5.152;2022-08-06T04:11:52;102812.63;;;12.26;91.68
51289;BME280;37372;52.294;5.152;2022-08-06T04:14:19;102813.75;;;12.21;92.11
51289;BME280;37372;52.294;5.152;2022-08-06T04:16:45;102814.63;;;12.25;92.63
51289;BME280;37372;52.294;5.152;2022-08-06T04:19:13;102814.69;;;12.29;92.05
51289;BME280;37372;52.294;5.152;2022-08-06T04:21:39;102819.44;;;12.25;92.23
51289;BME280;37372;52.294;5.152;2022-08-06T04:24:05;102823.88;;;12.26;92.78
51289;BME280;37372;52.294;5.152;2022-08-06T04:26:31;102822.69;;;12.27;92.86
51289;BME280;37372;52.294;5.152;2022-08-06T04:28:59;102825.19;;;12.32;93.37
51289;BME280;37372;52.294;5.152;2022-08-06T04:31:28;102825.06;;;12.25;94.57
51289;BME280;37372;52.294;5.152;2022-08-06T04:33:54;102820.94;;;12.19;94.61
51289;BME280;37372;52.294;5.152;2022-08-06T04:36:21;102823.75;;;12.19;94.60
51289;BME280;37372;52.294;5.152;2022-08-06T04:38:47;102827.44;;;12.23;94.62
51289;BME280;37372;52.294;5.152;2022-08-06T04:41:13;102829.81;;;12.21;95.01
51289;BME280;37372;52.294;5.152;2022-08-06T04:43:43;102829.50;;;12.26;94.92
51289;BME280;37372;52.294;5.152;2022-08-06T04:46:09;102822.69;;;12.27;94.54
51289;BME280;37372;52.294;5.152;2022-08-06T04:48:35;102829.16;;;12.31;94.45
51289;BME280;37372;52.294;5.152;2022-08-06T04:51:04;102831.63;;;12.32;93.83
51289;BME280;37372;52.294;5.152;2022-08-06T04:53:36;102832.81;;;12.31;94.02
51289;BME280;37372;52.294;5.152;2022-08-06T04:56:03;102828.44;;;12.34;94.20
51289;BME280;37372;52.294;5.152;2022-08-06T04:58:28;102837.41;;;12.43;94.22
51289;BME280;37372;52.294;5.152;2022-08-06T05:00:54;102835.72;;;12.38;94.08
51289;BME280;37372;52.294;5.152;2022-08-06T05:03:19;102843.78;;;12.40;94.22
51289;BME280;37372;52.294;5.152;2022-08-06T05:05:50;102843.91;;;12.47;94.31
51289;BME280;37372;52.294;5.152;2022-08-06T05:08:19;102844.28;;;12.46;94.19
51289;BME280;37372;52.294;5.152;2022-08-06T05:10:54;102853.69;;;12.57;94.12
51289;BME280;37372;52.294;5.152;2022-08-06T05:13:23;102852.47;;;12.54;94.13
51289;BME280;37372;52.294;5.152;2022-08-06T05:15:56;102857.75;;;12.59;93.16
51289;BME280;37372;52.294;5.152;2022-08-06T05:18:29;102858.16;;;12.62;93.53
51289;BME280;37372;52.294;5.152;2022-08-06T05:20:58;102857.00;;;12.63;93.32
51289;BME280;37372;52.294;5.152;2022-08-06T05:23:34;102866.69;;;12.65;93.68
51289;BME280;37372;52.294;5.152;2022-08-06T05:26:00;102862.22;;;12.64;93.95
51289;BME280;37372;52.294;5.152;2022-08-06T05:28:25;102863.47;;;12.67;95.29
51289;BME280;37372;52.294;5.152;2022-08-06T05:30:51;102869.16;;;12.70;95.08
51289;BME280;37372;52.294;5.152;2022-08-06T05:35:48;102867.69;;;12.80;96.30
51289;BME280;37372;52.294;5.152;2022-08-06T05:38:14;102877.09;;;12.91;96.05
51289;BME280;37372;52.294;5.152;2022-08-06T05:40:39;102870.41;;;13.03;96.21
51289;BME280;37372;52.294;5.152;2022-08-06T05:43:05;102874.13;;;13.11;95.76
51289;BME280;37372;52.294;5.152;2022-08-06T05:45:31;102878.63;;;13.19;95.97
51289;BME280;37372;52.294;5.152;2022-08-06T05:47:58;102884.47;;;13.33;96.05
51289;BME280;37372;52.294;5.152;2022-08-06T05:50:29;102876.97;;;13.48;95.32
51289;BME280;37372;52.294;5.152;2022-08-06T05:53:24;102891.22;;;13.59;95.35
51289;BME280;37372;52.294;5.152;2022-08-06T05:55:56;102890.06;;;13.67;95.79
51289;BME280;37372;52.294;5.152;2022-08-06T05:58:35;102885.41;;;13.82;95.74
51289;BME280;37372;52.294;5.152;2022-08-06T06:01:03;102884.69;;;13.92;95.81
51289;BME280;37372;52.294;5.152;2022-08-06T06:03:30;102887.59;;;14.03;95.89
51289;BME280;37372;52.294;5.152;2022-08-06T06:05:59;102892.50;;;14.13;95.64
51289;BME280;37372;52.294;5.152;2022-08-06T06:08:25;102890.53;;;14.17;95.96
51289;BME280;37372;52.294;5.152;2022-08-06T06:10:51;102895.84;;;14.26;96.14
51289;BME280;37372;52.294;5.152;2022-08-06T06:13:17;102894.31;;;14.39;95.84
51289;BME280;37372;52.294;5.152;2022-08-06T06:15:52;102898.38;;;14.42;95.17
51289;BME280;37372;52.294;5.152;2022-08-06T06:18:38;102896.88;;;14.55;94.45
51289;BME280;37372;52.294;5.152;2022-08-06T06:32:45;102905.28;;;15.17;91.63
51289;BME280;37372;52.294;5.152;2022-08-06T06:35:20;102909.38;;;15.31;91.62
51289;BME280;37372;52.294;5.152;2022-08-06T06:41:14;102912.28;;;15.52;89.65
51289;BME280;37372;52.294;5.152;2022-08-06T06:43:56;102914.72;;;15.64;90.11
51289;BME280;37372;52.294;5.152;2022-08-06T06:49:37;102919.25;;;15.83;89.31
51289;BME280;37372;52.294;5.152;2022-08-06T06:52:16;102918.03;;;15.92;88.55
51289;BME280;37372;52.294;5.152;2022-08-06T06:54:46;102918.88;;;15.96;86.49
51289;BME280;37372;52.294;5.152;2022-08-06T06:57:17;102926.16;;;16.00;85.31
51289;BME280;37372;52.294;5.152;2022-08-06T06:59:45;102926.56;;;16.06;83.91
51289;BME280;37372;52.294;5.152;2022-08-06T07:02:19;102930.59;;;16.09;81.03
51289;BME280;37372;52.294;5.152;2022-08-06T07:04:47;102926.16;;;16.15;81.09
51289;BME280;37372;52.294;5.152;2022-08-06T07:07:15;102927.38;;;16.14;79.19
51289;BME280;37372;52.294;5.152;2022-08-06T07:09:41;102932.22;;;16.17;77.92
51289;BME280;37372;52.294;5.152;2022-08-06T07:12:10;102931.44;;;16.23;76.92
51289;BME280;37372;52.294;5.152;2022-08-06T07:14:38;102933.44;;;16.30;78.16
51289;BME280;37372;52.294;5.152;2022-08-06T07:17:05;102934.66;;;16.29;76.95
51289;BME280;37372;52.294;5.152;2022-08-06T07:19:31;102932.63;;;16.30;76.02
51289;BME280;37372;52.294;5.152;2022-08-06T07:21:59;102941.13;;;16.37;75.78
51289;BME280;37372;52.294;5.152;2022-08-06T07:24:26;102944.34;;;16.42;74.98
51289;BME280;37372;52.294;5.152;2022-08-06T07:26:56;102939.50;;;16.50;74.26
51289;BME280;37372;52.294;5.152;2022-08-06T07:29:23;102952.44;;;16.55;73.25
51289;BME280;37372;52.294;5.152;2022-08-06T07:31:49;102948.38;;;16.56;72.49
51289;BME280;37372;52.294;5.152;2022-08-06T07:34:15;102944.34;;;16.64;72.59
51289;BME280;37372;52.294;5.152;2022-08-06T07:36:53;102949.19;;;16.67;71.85
51289;BME280;37372;52.294;5.152;2022-08-06T07:39:28;102951.63;;;16.72;71.51
51289;BME280;37372;52.294;5.152;2022-08-06T07:41:55;102960.16;;;16.79;71.52
51289;BME280;37372;52.294;5.152;2022-08-06T07:44:25;102957.28;;;16.86;70.83
51289;BME280;37372;52.294;5.152;2022-08-06T07:46:53;102960.91;;;16.90;70.34
51289;BME280;37372;52.294;5.152;2022-08-06T07:49:26;102962.94;;;16.93;69.92
51289;BME280;37372;52.294;5.152;2022-08-06T07:51:55;102965.34;;;16.99;69.31
51289;BME280;37372;52.294;5.152;2022-08-06T07:54:23;102962.91;;;17.01;68.76
51289;BME280;37372;52.294;5.152;2022-08-06T07:56:50;102967.75;;;17.11;69.40
51289;BME280;37372;52.294;5.152;2022-08-06T07:59:17;102962.06;;;17.18;69.30
51289;BME280;37372;52.294;5.152;2022-08-06T08:01:43;102968.50;;;17.22;69.01
51289;BME280;37372;52.294;5.152;2022-08-06T08:04:09;102968.53;;;17.26;68.35
51289;BME280;37372;52.294;5.152;2022-08-06T08:06:54;102972.16;;;17.26;68.71
51289;BME280;37372;52.294;5.152;2022-08-06T08:09:22;102969.69;;;17.32;69.08
51289;BME280;37372;52.294;5.152;2022-08-06T08:11:49;102968.44;;;17.44;69.02
51289;BME280;37372;52.294;5.152;2022-08-06T08:14:16;102964.34;;;17.52;68.58
51289;BME280;37372;52.294;5.152;2022-08-06T08:16:45;102972.84;;;17.59;68.74
51289;BME280;37372;52.294;5.152;2022-08-06T08:19:23;102972.41;;;17.64;68.60
51289;BME280;37372;52.294;5.152;2022-08-06T08:21:50;102968.72;;;17.71;68.92
51289;BME280;37372;52.294;5.152;2022-08-06T08:24:16;102966.25;;;17.73;68.59
51289;BME280;37372;52.294;5.152;2022-08-06T08:26:41;102968.31;;;17.65;67.54
51289;BME280;37372;52.294;5.152;2022-08-06T08:29:07;102967.97;;;17.63;67.10
51289;BME280;37372;52.294;5.152;2022-08-06T08:31:35;102976.03;;;17.65;67.78
51289;BME280;37372;52.294;5.152;2022-08-06T08:34:00;102973.16;;;17.72;67.15
51289;BME280;37372;52.294;5.152;2022-08-06T08:36:26;102974.00;;;17.69;66.96
51289;BME280;37372;52.294;5.152;2022-08-06T08:38:51;102973.19;;;17.65;66.91
51289;BME280;37372;52.294;5.152;2022-08-06T08:41:24;102973.25;;;17.54;65.50
51289;BME280;37372;52.294;5.152;2022-08-06T08:43:56;102973.22;;;17.61;67.49
51289;BME280;37372;52.294;5.152;2022-08-06T08:46:22;102975.59;;;17.73;67.87
51289;BME280;37372;52.294;5.152;2022-08-06T08:48:49;102973.94;;;17.83;66.70
51289;BME280;37372;52.294;5.152;2022-08-06T08:51:15;102981.22;;;17.88;65.43
51289;BME280;37372;52.294;5.152;2022-08-06T08:53:48;102975.44;;;18.02;66.36
51289;BME280;37372;52.294;5.152;2022-08-06T08:56:17;102973.75;;;18.12;65.79
51289;BME280;37372;52.294;5.152;2022-08-06T08:58:43;102980.25;;;18.09;64.59
51289;BME280;37372;52.294;5.152;2022-08-06T09:01:08;102976.25;;;18.03;64.69
51289;BME280;37372;52.294;5.152;2022-08-06T09:03:35;102972.66;;;17.95;64.03
51289;BME280;37372;52.294;5.152;2022-08-06T09:06:03;102981.22;;;17.91;64.52
51289;BME280;37372;52.294;5.152;2022-08-06T09:08:30;102980.38;;;17.91;64.10
51289;BME280;37372;52.294;5.152;2022-08-06T09:10:55;102985.25;;;17.94;63.97
51289;BME280;37372;52.294;5.152;2022-08-06T09:13:23;102973.00;;;18.04;64.96
51289;BME280;37372;52.294;5.152;2022-08-06T09:15:50;102979.44;;;18.12;63.72
51289;BME280;37372;52.294;5.152;2022-08-06T09:18:16;102985.50;;;18.17;63.33
51289;BME280;37372;52.294;5.152;2022-08-06T09:20:41;102986.25;;;18.21;62.84
51289;BME280;37372;52.294;5.152;2022-08-06T09:23:06;102994.41;;;18.16;60.19
51289;BME280;37372;52.294;5.152;2022-08-06T09:25:35;102990.72;;;18.22;61.54
51289;BME280;37372;52.294;5.152;2022-08-06T09:28:11;102985.00;;;18.26;61.84
51289;BME280;37372;52.294;5.152;2022-08-06T09:31:06;102988.16;;;18.39;62.74
51289;BME280;37372;52.294;5.152;2022-08-06T09:33:35;102999.00;;;18.55;61.85
51289;BME280;37372;52.294;5.152;2022-08-06T09:36:04;102985.44;;;18.70;61.65
51289;BME280;37372;52.294;5.152;2022-08-06T09:38:30;102991.03;;;18.84;61.91
51289;BME280;37372;52.294;5.152;2022-08-06T09:41:07;102981.97;;;18.96;60.96
51289;BME280;37372;52.294;5.152;2022-08-06T09:43:33;102986.13;;;18.88;60.22
51289;BME280;37372;52.294;5.152;2022-08-06T09:45:59;102987.72;;;18.89;60.40
51289;BME280;37372;52.294;5.152;2022-08-06T09:48:24;102986.94;;;18.85;59.94
51289;BME280;37372;52.294;5.152;2022-08-06T09:50:49;102995.41;;;18.92;59.30
51289;BME280;37372;52.294;5.152;2022-08-06T09:53:15;102990.97;;;18.91;60.42
51289;BME280;37372;52.294;5.152;2022-08-06T09:55:42;102991.75;;;18.92;59.39
51289;BME280;37372;52.294;5.152;2022-08-06T09:58:08;102993.34;;;18.96;59.55
51289;BME280;37372;52.294;5.152;2022-08-06T10:00:35;102983.13;;;19.02;59.35
51289;BME280;37372;52.294;5.152;2022-08-06T10:03:03;102991.63;;;19.06;59.92
51289;BME280;37372;52.294;5.152;2022-08-06T10:05:30;102988.13;;;18.91;60.05
51289;BME280;37372;52.294;5.152;2022-08-06T10:08:13;102991.88;;;18.81;58.37
51289;BME280;37372;52.294;5.152;2022-08-06T10:10:43;102990.69;;;18.75;58.14
51289;BME280;37372;52.294;5.152;2022-08-06T10:15:42;102994.28;;;18.82;59.59
51289;BME280;37372;52.294;5.152;2022-08-06T10:18:10;103002.44;;;18.80;59.36
51289;BME280;37372;52.294;5.152;2022-08-06T10:20:35;102991.50;;;18.79;58.98
51289;BME280;37372;52.294;5.152;2022-08-06T10:23:00;102998.31;;;18.85;57.77
51289;BME280;37372;52.294;5.152;2022-08-06T10:25:26;103001.03;;;18.99;56.56
51289;BME280;37372;52.294;5.152;2022-08-06T10:27:55;102997.19;;;19.17;55.45
51289;BME280;37372;52.294;5.152;2022-08-06T10:30:20;102997.78;;;19.35;55.74
51289;BME280;37372;52.294;5.152;2022-08-06T10:32:48;102997.56;;;19.53;55.03
51289;BME280;37372;52.294;5.152;2022-08-06T10:35:20;102997.78;;;19.66;53.99
51289;BME280;37372;52.294;5.152;2022-08-06T10:37:50;102992.44;;;19.75;53.53
51289;BME280;37372;52.294;5.152;2022-08-06T10:40:19;102998.16;;;19.71;54.18
51289;BME280;37372;52.294;5.152;2022-08-06T10:42:44;102997.53;;;19.57;54.08
51289;BME280;37372;52.294;5.152;2022-08-06T10:45:11;102996.75;;;19.52;54.89
51289;BME280;37372;52.294;5.152;2022-08-06T10:47:37;102992.78;;;19.46;54.83
51289;BME280;37372;52.294;5.152;2022-08-06T10:50:04;102985.38;;;19.52;56.51
51289;BME280;37372;52.294;5.152;2022-08-06T10:52:29;102999.13;;;19.58;55.74
51289;BME280;37372;52.294;5.152;2022-08-06T10:54:56;102996.75;;;19.52;53.67
51289;BME280;37372;52.294;5.152;2022-08-06T10:57:26;102999.22;;;19.50;53.17
51289;BME280;37372;52.294;5.152;2022-08-06T10:59:52;103001.69;;;19.48;52.41
51289;BME280;37372;52.294;5.152;2022-08-06T11:02:24;102993.53;;;19.50;51.81
51289;BME280;37372;52.294;5.152;2022-08-06T11:05:15;102993.06;;;19.56;50.79
51289;BME280;37372;52.294;5.152;2022-08-06T11:08:07;103004.06;;;19.53;50.51
51289;BME280;37372;52.294;5.152;2022-08-06T11:16:28;102991.06;;;19.52;50.99
51289;BME280;37372;52.294;5.152;2022-08-06T11:19:11;102987.81;;;19.54;51.85
51289;BME280;37372;52.294;5.152;2022-08-06T11:21:46;102978.81;;;19.56;52.17
51289;BME280;37372;52.294;5.152;2022-08-06T11:24:12;102977.59;;;19.57;52.84
51289;BME280;37372;52.294;5.152;2022-08-06T11:26:40;102980.81;;;19.59;52.70
51289;BME280;37372;52.294;5.152;2022-08-06T11:29:11;102973.50;;;19.58;51.93
51289;BME280;37372;52.294;5.152;2022-08-06T11:31:42;102975.59;;;19.53;51.72
51289;BME280;37372;52.294;5.152;2022-08-06T11:34:12;102979.28;;;19.50;51.48
51289;BME280;37372;52.294;5.152;2022-08-06T11:36:49;102977.31;;;19.47;51.79
51289;BME280;37372;52.294;5.152;2022-08-06T11:39:15;102977.38;;;19.44;51.46
51289;BME280;37372;52.294;5.152;2022-08-06T11:42:00;102974.84;;;19.49;52.68
51289;BME280;37372;52.294;5.152;2022-08-06T11:44:31;102977.22;;;19.55;51.61
51289;BME280;37372;52.294;5.152;2022-08-06T11:49:40;102977.59;;;19.57;49.03
51289;BME280;37372;52.294;5.152;2022-08-06T11:52:07;102970.59;;;19.61;50.60
51289;BME280;37372;52.294;5.152;2022-08-06T12:00:00;102969.75;;;19.68;53.58
51289;BME280;37372;52.294;5.152;2022-08-06T12:07:46;102971.94;;;19.84;50.24
51289;BME280;37372;52.294;5.152;2022-08-06T12:10:15;102973.72;;;19.74;47.82
51289;BME280;37372;52.294;5.152;2022-08-06T12:12:45;102968.78;;;19.78;48.57
51289;BME280;37372;52.294;5.152;2022-08-06T12:20:35;102963.84;;;19.82;49.71
51289;BME280;37372;52.294;5.152;2022-08-06T12:23:06;102959.75;;;19.83;50.57
51289;BME280;37372;52.294;5.152;2022-08-06T12:25:42;102961.38;;;19.84;50.98
51289;BME280;37372;52.294;5.152;2022-08-06T12:28:10;102956.81;;;19.90;50.79
51289;BME280;37372;52.294;5.152;2022-08-06T12:30:45;102958.72;;;19.97;51.55
51289;BME280;37372;52.294;5.152;2022-08-06T12:33:11;102960.41;;;19.94;50.45
51289;BME280;37372;52.294;5.152;2022-08-06T12:36:00;102955.47;;;19.99;50.56
51289;BME280;37372;52.294;5.152;2022-08-06T12:38:29;102951.00;;;19.98;49.64
51289;BME280;37372;52.294;5.152;2022-08-06T12:41:01;102954.22;;;20.00;50.48
51289;BME280;37372;52.294;5.152;2022-08-06T12:43:28;102951.31;;;20.03;50.23
51289;BME280;37372;52.294;5.152;2022-08-06T12:46:05;102956.22;;;20.03;48.56
51289;BME280;37372;52.294;5.152;2022-08-06T12:48:33;102960.28;;;20.02;48.06
51289;BME280;37372;52.294;5.152;2022-08-06T12:51:09;102951.50;;;19.92;47.60
51289;BME280;37372;52.294;5.152;2022-08-06T12:53:41;102954.28;;;19.96;48.30
51289;BME280;37372;52.294;5.152;2022-08-06T12:56:09;102944.81;;;20.03;49.56
51289;BME280;37372;52.294;5.152;2022-08-06T12:58:37;102947.19;;;20.08;49.05
51289;BME280;37372;52.294;5.152;2022-08-06T13:01:04;102941.13;;;20.06;48.37
51289;BME280;37372;52.294;5.152;2022-08-06T13:03:32;102935.03;;;20.04;48.65
51289;BME280;37372;52.294;5.152;2022-08-06T13:05:59;102935.34;;;20.09;49.44
51289;BME280;37372;52.294;5.152;2022-08-06T13:08:26;102937.41;;;20.09;48.30
51289;BME280;37372;52.294;5.152;2022-08-06T13:10:53;102945.44;;;20.14;48.88
51289;BME280;37372;52.294;5.152;2022-08-06T13:13:19;102937.66;;;20.18;48.40
51289;BME280;37372;52.294;5.152;2022-08-06T13:16:09;102943.66;;;20.24;49.28
51289;BME280;37372;52.294;5.152;2022-08-06T13:18:36;102939.63;;;20.21;49.33
51289;BME280;37372;52.294;5.152;2022-08-06T13:21:03;102936.88;;;20.17;48.85
51289;BME280;37372;52.294;5.152;2022-08-06T13:23:32;102934.84;;;20.14;48.55
51289;BME280;37372;52.294;5.152;2022-08-06T13:26:15;102927.47;;;20.17;50.08
51289;BME280;37372;52.294;5.152;2022-08-06T13:31:28;102930.22;;;20.24;49.30
51289;BME280;37372;52.294;5.152;2022-08-06T13:34:05;102929.72;;;20.29;50.00
51289;BME280;37372;52.294;5.152;2022-08-06T13:36:32;102930.22;;;20.24;49.06
51289;BME280;37372;52.294;5.152;2022-08-06T13:38:58;102927.75;;;20.26;49.87
51289;BME280;37372;52.294;5.152;2022-08-06T13:41:29;102932.19;;;20.27;49.38
51289;BME280;37372;52.294;5.152;2022-08-06T13:43:57;102928.13;;;20.28;49.22
51289;BME280;37372;52.294;5.152;2022-08-06T13:46:24;102927.19;;;20.35;49.63
51289;BME280;37372;52.294;5.152;2022-08-06T13:48:52;102925.50;;;20.37;50.31
51289;BME280;37372;52.294;5.152;2022-08-06T13:51:19;102931.22;;;20.37;49.84
51289;BME280;37372;52.294;5.152;2022-08-06T13:53:45;102928.84;;;20.32;49.51
51289;BME280;37372;52.294;5.152;2022-08-06T13:56:13;102928.50;;;20.30;49.58
51289;BME280;37372;52.294;5.152;2022-08-06T13:58:38;102927.25;;;20.31;49.63
51289;BME280;37372;52.294;5.152;2022-08-06T14:01:03;102924.78;;;20.33;49.88
51289;BME280;37372;52.294;5.152;2022-08-06T14:03:29;102922.44;;;20.28;49.67